sensor_id;sensor_type;location;lat;lon;timestamp;pressure;altitude;pressure_sealevel;temperature;humidity
42727;BME280;28372;56.832;60.658;2024-01-16T00:00:46;98115.47;;;-7.96;47.10
42727;BME280;28372;56.832;60.658;2024-01-16T00:03:14;98117.28;;;-7.97;47.23
42727;BME280;28372;56.832;60.658;2024-01-16T00:05:46;98116.44;;;-8.02;46.95
42727;BME280;28372;56.832;60.658;2024-01-16T00:08:14;98110.81;;;-8.11;47.11
42727;BME280;28372;56.832;60.658;2024-01-16T00:10:42;98110.50;;;-8.32;47.30
42727;BME280;28372;56.832;60.658;2024-01-16T00:13:10;98107.97;;;-8.27;47.49
42727;BME280;28372;56.832;60.658;2024-01-16T00:15:39;98115.41;;;-8.01;47.21
42727;BME280;28372;56.832;60.658;2024-01-16T00:18:15;98114.81;;;-7.86;46.79
42727;BME280;28372;56.832;60.658;2024-01-16T00:21:03;98074.38;;;-8.07;46.24
42727;BME280;28372;56.832;60.658;2024-01-16T00:23:32;98085.88;;;-7.92;46.37
42727;BME280;28372;56.832;60.658;2024-01-16T00:26:01;98112.44;;;-7.66;46.67
42727;BME280;28372;56.832;60.658;2024-01-16T00:28:31;98099.53;;;-7.67;46.06
42727;BME280;28372;56.832;60.658;2024-01-16T00:31:00;98108.34;;;-7.57;45.87
42727;BME280;28372;56.832;60.658;2024-01-16T00:33:28;98114.28;;;-7.66;45.55
42727;BME280;28372;56.832;60.658;2024-01-16T00:35:56;98107.13;;;-7.71;45.38
42727;BME280;28372;56.832;60.658;2024-01-16T00:38:25;98109.06;;;-7.83;45.21
42727;BME280;28372;56.832;60.658;2024-01-16T00:40:54;98101.13;;;-7.88;45.53
42727;BME280;28372;56.832;60.658;2024-01-16T00:43:23;98096.81;;;-7.78;45.69
42727;BME280;28372;56.832;60.658;2024-01-16T00:45:51;98093.38;;;-7.56;45.64
42727;BME280;28372;56.832;60.658;2024-01-16T00:48:19;98092.28;;;-7.60;44.78
42727;BME280;28372;56.832;60.658;2024-01-16T00:50:50;98100.47;;;-7.57;45.40
42727;BME280;28372;56.832;60.658;2024-01-16T00:53:18;98101.03;;;-7.54;45.22
42727;BME280;28372;56.832;60.658;2024-01-16T00:55:49;98098.75;;;-7.68;45.12
42727;BME280;28372;56.832;60.658;2024-01-16T00:58:21;98071.59;;;-8.01;45.11
42727;BME280;28372;56.832;60.658;2024-01-16T01:00:52;98106.19;;;-7.82;44.20
42727;BME280;28372;56.832;60.658;2024-01-16T01:03:20;98102.22;;;-7.84;43.87
42727;BME280;28372;56.832;60.658;2024-01-16T01:05:48;98092.28;;;-8.04;44.78
42727;BME280;28372;56.832;60.658;2024-01-16T01:08:17;98097.84;;;-8.01;45.04
42727;BME280;28372;56.832;60.658;2024-01-16T01:10:45;98097.03;;;-8.01;44.89
42727;BME280;28372;56.832;60.658;2024-01-16T01:13:13;98101.50;;;-8.02;45.06
42727;BME280;28372;56.832;60.658;2024-01-16T01:15:41;98081.88;;;-7.94;45.47
42727;BME280;28372;56.832;60.658;2024-01-16T01:18:10;98098.13;;;-7.97;45.10
42727;BME280;28372;56.832;60.658;2024-01-16T01:20:38;98086.91;;;-7.93;45.39
42727;BME280;28372;56.832;60.658;2024-01-16T01:23:07;98099.91;;;-7.81;45.31
42727;BME280;28372;56.832;60.658;2024-01-16T01:25:36;98084.47;;;-7.99;44.88
42727;BME280;28372;56.832;60.658;2024-01-16T01:28:05;98094.41;;;-8.01;44.50
42727;BME280;28372;56.832;60.658;2024-01-16T01:30:33;98079.69;;;-8.02;44.62
42727;BME280;28372;56.832;60.658;2024-01-16T01:33:01;98115.59;;;-8.25;43.43
42727;BME280;28372;56.832;60.658;2024-01-16T01:35:29;98097.78;;;-8.45;44.42
42727;BME280;28372;56.832;60.658;2024-01-16T01:37:58;98096.66;;;-8.49;44.48
42727;BME280;28372;56.832;60.658;2024-01-16T01:40:26;98115.94;;;-8.21;45.33
42727;BME280;28372;56.832;60.658;2024-01-16T01:42:54;98128.03;;;-8.20;45.45
42727;BME280;28372;56.832;60.658;2024-01-16T01:45:22;98119.91;;;-8.19;44.31
42727;BME280;28372;56.832;60.658;2024-01-16T01:47:50;98121.19;;;-8.38;45.35
42727;BME280;28372;56.832;60.658;2024-01-16T01:50:18;98118.38;;;-8.15;44.93
42727;BME280;28372;56.832;60.658;2024-01-16T01:52:48;98110.88;;;-8.06;45.23
42727;BME280;28372;56.832;60.658;2024-01-16T01:55:19;98112.03;;;-7.97;44.86
42727;BME280;28372;56.832;60.658;2024-01-16T01:57:47;98124.56;;;-8.04;44.48
42727;BME280;28372;56.832;60.658;2024-01-16T02:00:16;98122.50;;;-8.02;44.67
42727;BME280;28372;56.832;60.658;2024-01-16T02:02:47;98131.50;;;-8.15;44.55
42727;BME280;28372;56.832;60.658;2024-01-16T02:05:15;98118.97;;;-8.30;44.80
42727;BME280;28372;56.832;60.658;2024-01-16T02:07:46;98126.59;;;-8.28;44.62
42727;BME280;28372;56.832;60.658;2024-01-16T02:10:13;98121.00;;;-8.32;44.65
42727;BME280;28372;56.832;60.658;2024-01-16T02:12:44;98121.44;;;-8.74;45.68
42727;BME280;28372;56.832;60.658;2024-01-16T02:15:13;98119.84;;;-9.38;46.24
42727;BME280;28372;56.832;60.658;2024-01-16T02:17:42;98115.66;;;-9.22;46.19
42727;BME280;28372;56.832;60.658;2024-01-16T02:20:30;98099.59;;;-9.42;46.67
42727;BME280;28372;56.832;60.658;2024-01-16T02:23:02;98119.63;;;-9.19;46.21
42727;BME280;28372;56.832;60.658;2024-01-16T02:25:31;98106.50;;;-9.07;46.09
42727;BME280;28372;56.832;60.658;2024-01-16T02:28:00;98115.47;;;-9.32;46.42
42727;BME280;28372;56.832;60.658;2024-01-16T02:30:30;98119.91;;;-9.04;46.26
42727;BME280;28372;56.832;60.658;2024-01-16T02:32:59;98105.56;;;-8.84;46.06
42727;BME280;28372;56.832;60.658;2024-01-16T02:35:31;98092.31;;;-9.23;45.95
42727;BME280;28372;56.832;60.658;2024-01-16T02:38:00;98093.22;;;-9.01;46.14
42727;BME280;28372;56.832;60.658;2024-01-16T02:40:28;98106.66;;;-8.97;45.64
42727;BME280;28372;56.832;60.658;2024-01-16T02:42:56;98097.28;;;-8.93;46.13
42727;BME280;28372;56.832;60.658;2024-01-16T02:45:24;98094.38;;;-9.54;45.93
42727;BME280;28372;56.832;60.658;2024-01-16T02:47:53;98091.47;;;-9.70;46.53
42727;BME280;28372;56.832;60.658;2024-01-16T02:50:22;98095.69;;;-9.69;47.13
42727;BME280;28372;56.832;60.658;2024-01-16T02:52:52;98094.00;;;-9.46;47.05
42727;BME280;28372;56.832;60.658;2024-01-16T02:55:21;98097.84;;;-9.37;47.01
42727;BME280;28372;56.832;60.658;2024-01-16T02:57:51;98099.16;;;-9.22;46.79
42727;BME280;28372;56.832;60.658;2024-01-16T03:00:20;98102.53;;;-9.10;46.73
42727;BME280;28372;56.832;60.658;2024-01-16T03:02:50;98103.41;;;-9.04;46.51
42727;BME280;28372;56.832;60.658;2024-01-16T03:05:18;98079.84;;;-9.16;46.33
42727;BME280;28372;56.832;60.658;2024-01-16T03:07:46;98101.59;;;-9.33;46.66
42727;BME280;28372;56.832;60.658;2024-01-16T03:10:14;98097.66;;;-9.88;48.80
42727;BME280;28372;56.832;60.658;2024-01-16T03:12:42;98094.13;;;-10.46;49.68
42727;BME280;28372;56.832;60.658;2024-01-16T03:15:12;98086.59;;;-10.66;49.40
42727;BME280;28372;56.832;60.658;2024-01-16T03:17:40;98100.66;;;-10.79;52.50
42727;BME280;28372;56.832;60.658;2024-01-16T03:20:09;98104.59;;;-11.00;49.69
42727;BME280;28372;56.832;60.658;2024-01-16T03:22:38;98088.59;;;-10.92;50.62
42727;BME280;28372;56.832;60.658;2024-01-16T03:25:08;98114.09;;;-10.28;49.23
42727;BME280;28372;56.832;60.658;2024-01-16T03:27:37;98104.00;;;-10.60;50.38
42727;BME280;28372;56.832;60.658;2024-01-16T03:30:06;98097.63;;;-10.52;49.70
42727;BME280;28372;56.832;60.658;2024-01-16T03:32:36;98107.47;;;-10.19;49.35
42727;BME280;28372;56.832;60.658;2024-01-16T03:35:07;98085.75;;;-10.19;49.60
42727;BME280;28372;56.832;60.658;2024-01-16T03:37:38;98096.59;;;-10.75;49.38
42727;BME280;28372;56.832;60.658;2024-01-16T03:40:08;98108.03;;;-10.88;52.30
42727;BME280;28372;56.832;60.658;2024-01-16T03:42:37;98104.50;;;-11.05;51.72
42727;BME280;28372;56.832;60.658;2024-01-16T03:45:06;98111.88;;;-11.32;52.61
42727;BME280;28372;56.832;60.658;2024-01-16T03:47:35;98099.13;;;-11.41;53.30
42727;BME280;28372;56.832;60.658;2024-01-16T03:50:03;98103.28;;;-11.51;53.82
42727;BME280;28372;56.832;60.658;2024-01-16T03:52:32;98097.81;;;-11.62;54.45
42727;BME280;28372;56.832;60.658;2024-01-16T03:55:01;98098.03;;;-11.63;54.50
42727;BME280;28372;56.832;60.658;2024-01-16T03:57:30;98099.03;;;-11.64;53.86
42727;BME280;28372;56.832;60.658;2024-01-16T03:59:58;98089.66;;;-11.54;52.93
42727;BME280;28372;56.832;60.658;2024-01-16T04:02:26;98084.41;;;-11.84;54.06
42727;BME280;28372;56.832;60.658;2024-01-16T04:04:54;98079.56;;;-11.80;54.14
42727;BME280;28372;56.832;60.658;2024-01-16T04:07:23;98101.94;;;-11.73;54.79
42727;BME280;28372;56.832;60.658;2024-01-16T04:09:53;98090.75;;;-11.92;52.89
42727;BME280;28372;56.832;60.658;2024-01-16T04:12:21;98100.50;;;-11.87;53.37
42727;BME280;28372;56.832;60.658;2024-01-16T04:14:49;98085.06;;;-12.00;54.11
42727;BME280;28372;56.832;60.658;2024-01-16T04:17:17;98089.47;;;-11.71;54.93
42727;BME280;28372;56.832;60.658;2024-01-16T04:19:45;98107.09;;;-11.66;56.21
42727;BME280;28372;56.832;60.658;2024-01-16T04:22:13;98109.66;;;-11.78;56.61
42727;BME280;28372;56.832;60.658;2024-01-16T04:24:41;98113.19;;;-11.72;56.26
42727;BME280;28372;56.832;60.658;2024-01-16T04:27:10;98107.66;;;-11.82;56.44
42727;BME280;28372;56.832;60.658;2024-01-16T04:29:38;98115.50;;;-11.64;56.68
42727;BME280;28372;56.832;60.658;2024-01-16T04:32:07;98117.50;;;-11.47;55.71
42727;BME280;28372;56.832;60.658;2024-01-16T04:34:35;98116.34;;;-11.51;55.81
42727;BME280;28372;56.832;60.658;2024-01-16T04:37:04;98120.63;;;-11.57;57.28
42727;BME280;28372;56.832;60.658;2024-01-16T04:39:32;98103.31;;;-11.70;55.56
42727;BME280;28372;56.832;60.658;2024-01-16T04:42:01;98102.31;;;-11.69;55.42
42727;BME280;28372;56.832;60.658;2024-01-16T04:44:29;98121.00;;;-11.72;55.46
42727;BME280;28372;56.832;60.658;2024-01-16T04:46:58;98122.69;;;-11.78;54.86
42727;BME280;28372;56.832;60.658;2024-01-16T04:49:26;98105.19;;;-11.59;54.77
42727;BME280;28372;56.832;60.658;2024-01-16T04:51:54;98101.97;;;-11.42;55.36
42727;BME280;28372;56.832;60.658;2024-01-16T04:54:24;98116.78;;;-11.55;54.35
42727;BME280;28372;56.832;60.658;2024-01-16T04:56:52;98106.22;;;-11.60;54.72
42727;BME280;28372;56.832;60.658;2024-01-16T04:59:20;98103.75;;;-11.73;52.82
42727;BME280;28372;56.832;60.658;2024-01-16T05:01:49;98099.84;;;-11.33;52.24
42727;BME280;28372;56.832;60.658;2024-01-16T05:04:17;98117.88;;;-11.13;52.78
42727;BME280;28372;56.832;60.658;2024-01-16T05:06:50;98105.44;;;-11.30;52.67
42727;BME280;28372;56.832;60.658;2024-01-16T05:09:20;98107.06;;;-11.17;51.81
42727;BME280;28372;56.832;60.658;2024-01-16T05:11:48;98102.88;;;-11.48;53.00
42727;BME280;28372;56.832;60.658;2024-01-16T05:14:16;98099.88;;;-11.52;52.89
42727;BME280;28372;56.832;60.658;2024-01-16T05:16:44;98108.84;;;-11.60;55.10
42727;BME280;28372;56.832;60.658;2024-01-16T05:19:12;98111.06;;;-11.63;54.98
42727;BME280;28372;56.832;60.658;2024-01-16T05:21:41;98132.38;;;-11.66;55.58
42727;BME280;28372;56.832;60.658;2024-01-16T05:24:09;98113.25;;;-11.79;55.27
42727;BME280;28372;56.832;60.658;2024-01-16T05:26:37;98122.63;;;-11.71;55.42
42727;BME280;28372;56.832;60.658;2024-01-16T05:29:05;98127.84;;;-11.71;57.96
42727;BME280;28372;56.832;60.658;2024-01-16T05:31:42;98130.78;;;-11.67;56.94
42727;BME280;28372;56.832;60.658;2024-01-16T05:34:10;98113.59;;;-11.57;56.36
42727;BME280;28372;56.832;60.658;2024-01-16T05:36:38;98113.75;;;-11.70;54.17
42727;BME280;28372;56.832;60.658;2024-01-16T05:39:06;98126.66;;;-11.57;57.04
42727;BME280;28372;56.832;60.658;2024-01-16T05:41:35;98130.94;;;-11.62;55.25
42727;BME280;28372;56.832;60.658;2024-01-16T05:44:03;98138.13;;;-11.76;55.59
42727;BME280;28372;56.832;60.658;2024-01-16T05:46:34;98159.75;;;-11.57;56.05
42727;BME280;28372;56.832;60.658;2024-01-16T05:49:02;98133.56;;;-11.62;56.06
42727;BME280;28372;56.832;60.658;2024-01-16T05:51:33;98140.56;;;-11.63;56.45
42727;BME280;28372;56.832;60.658;2024-01-16T05:54:02;98140.16;;;-11.60;57.72
42727;BME280;28372;56.832;60.658;2024-01-16T05:56:31;98136.50;;;-11.59;57.68
42727;BME280;28372;56.832;60.658;2024-01-16T05:59:02;98133.47;;;-11.56;56.21
42727;BME280;28372;56.832;60.658;2024-01-16T06:01:30;98138.53;;;-11.61;56.62
42727;BME280;28372;56.832;60.658;2024-01-16T06:03:59;98117.97;;;-11.69;55.46
42727;BME280;28372;56.832;60.658;2024-01-16T06:06:27;98128.97;;;-11.67;57.77
42727;BME280;28372;56.832;60.658;2024-01-16T06:08:56;98113.22;;;-11.60;56.24
42727;BME280;28372;56.832;60.658;2024-01-16T06:11:33;98122.44;;;-11.58;57.95
42727;BME280;28372;56.832;60.658;2024-01-16T06:14:04;98104.97;;;-11.57;57.30
42727;BME280;28372;56.832;60.658;2024-01-16T06:16:33;98088.81;;;-11.66;56.90
42727;BME280;28372;56.832;60.658;2024-01-16T06:19:00;98114.06;;;-11.60;57.24
42727;BME280;28372;56.832;60.658;2024-01-16T06:21:30;98094.97;;;-11.60;56.48
42727;BME280;28372;56.832;60.658;2024-01-16T06:23:58;98099.97;;;-11.59;56.94
42727;BME280;28372;56.832;60.658;2024-01-16T06:26:26;98105.59;;;-11.43;56.96
42727;BME280;28372;56.832;60.658;2024-01-16T06:28:54;98111.94;;;-11.51;55.98
42727;BME280;28372;56.832;60.658;2024-01-16T06:31:22;98105.03;;;-11.45;56.83
42727;BME280;28372;56.832;60.658;2024-01-16T06:33:53;98098.22;;;-11.46;56.77
42727;BME280;28372;56.832;60.658;2024-01-16T06:36:21;98101.81;;;-11.47;56.42
42727;BME280;28372;56.832;60.658;2024-01-16T06:38:52;98115.31;;;-11.50;56.37
42727;BME280;28372;56.832;60.658;2024-01-16T06:41:20;98105.81;;;-11.45;57.03
42727;BME280;28372;56.832;60.658;2024-01-16T06:43:49;98112.72;;;-11.50;55.22
42727;BME280;28372;56.832;60.658;2024-01-16T06:46:19;98111.94;;;-11.51;57.22
42727;BME280;28372;56.832;60.658;2024-01-16T06:48:49;98105.56;;;-11.55;57.19
42727;BME280;28372;56.832;60.658;2024-01-16T06:51:17;98108.50;;;-11.51;57.30
42727;BME280;28372;56.832;60.658;2024-01-16T06:53:45;98101.41;;;-11.63;57.38
42727;BME280;28372;56.832;60.658;2024-01-16T06:56:13;98097.81;;;-11.62;64.13
42727;BME280;28372;56.832;60.658;2024-01-16T06:58:42;98110.31;;;-11.52;66.21
42727;BME280;28372;56.832;60.658;2024-01-16T07:01:10;98105.03;;;-11.45;67.43
42727;BME280;28372;56.832;60.658;2024-01-16T07:03:38;98104.94;;;-11.39;67.57
42727;BME280;28372;56.832;60.658;2024-01-16T07:06:08;98108.03;;;-11.30;68.99
42727;BME280;28372;56.832;60.658;2024-01-16T07:08:36;98103.25;;;-11.33;69.01
42727;BME280;28372;56.832;60.658;2024-01-16T07:11:04;98096.91;;;-11.37;69.80
42727;BME280;28372;56.832;60.658;2024-01-16T07:13:35;98102.03;;;-11.30;69.13
42727;BME280;28372;56.832;60.658;2024-01-16T07:16:04;98107.59;;;-11.27;68.82
42727;BME280;28372;56.832;60.658;2024-01-16T07:18:34;98092.00;;;-11.33;68.97
42727;BME280;28372;56.832;60.658;2024-01-16T07:21:02;98113.00;;;-11.40;68.51
42727;BME280;28372;56.832;60.658;2024-01-16T07:23:32;98116.09;;;-11.31;67.96
42727;BME280;28372;56.832;60.658;2024-01-16T07:26:01;98115.28;;;-11.32;68.62
42727;BME280;28372;56.832;60.658;2024-01-16T07:28:33;98106.13;;;-11.23;69.04
42727;BME280;28372;56.832;60.658;2024-01-16T07:31:02;98110.66;;;-11.30;68.49
42727;BME280;28372;56.832;60.658;2024-01-16T07:33:32;98108.13;;;-11.37;68.59
42727;BME280;28372;56.832;60.658;2024-01-16T07:36:02;98111.56;;;-11.24;68.20
42727;BME280;28372;56.832;60.658;2024-01-16T07:38:30;98118.09;;;-11.15;67.78
42727;BME280;28372;56.832;60.658;2024-01-16T07:40:58;98089.75;;;-11.30;67.98
42727;BME280;28372;56.832;60.658;2024-01-16T07:43:26;98100.00;;;-11.16;68.33
42727;BME280;28372;56.832;60.658;2024-01-16T07:45:57;98109.72;;;-11.05;68.07
42727;BME280;28372;56.832;60.658;2024-01-16T07:48:26;98093.44;;;-11.19;68.64
42727;BME280;28372;56.832;60.658;2024-01-16T07:50:55;98104.81;;;-11.02;67.82
42727;BME280;28372;56.832;60.658;2024-01-16T07:53:42;98095.63;;;-11.04;69.19
42727;BME280;28372;56.832;60.658;2024-01-16T07:56:11;98097.53;;;-11.11;68.01
42727;BME280;28372;56.832;60.658;2024-01-16T07:58:41;98104.59;;;-11.00;67.78
42727;BME280;28372;56.832;60.658;2024-01-16T08:01:10;98099.41;;;-10.88;67.83
42727;BME280;28372;56.832;60.658;2024-01-16T08:03:38;98100.88;;;-10.92;67.57
42727;BME280;28372;56.832;60.658;2024-01-16T08:06:07;98092.59;;;-10.89;68.31
42727;BME280;28372;56.832;60.658;2024-01-16T08:08:36;98087.25;;;-10.82;68.28
42727;BME280;28372;56.832;60.658;2024-01-16T08:11:04;98078.50;;;-10.76;68.19
42727;BME280;28372;56.832;60.658;2024-01-16T08:13:32;98086.47;;;-10.59;68.70
42727;BME280;28372;56.832;60.658;2024-01-16T08:16:01;98077.84;;;-10.48;68.27
42727;BME280;28372;56.832;60.658;2024-01-16T08:18:29;98089.63;;;-10.22;68.51
42727;BME280;28372;56.832;60.658;2024-01-16T08:21:00;98080.41;;;-10.12;69.42
42727;BME280;28372;56.832;60.658;2024-01-16T08:23:28;98072.91;;;-10.21;69.50
42727;BME280;28372;56.832;60.658;2024-01-16T08:25:57;98075.50;;;-10.09;68.08
42727;BME280;28372;56.832;60.658;2024-01-16T08:28:25;98081.75;;;-9.98;69.91
42727;BME280;28372;56.832;60.658;2024-01-16T08:30:53;98085.28;;;-10.04;69.12
42727;BME280;28372;56.832;60.658;2024-01-16T08:33:21;98081.28;;;-9.95;69.25
42727;BME280;28372;56.832;60.658;2024-01-16T08:36:04;98086.16;;;-9.87;69.33
42727;BME280;28372;56.832;60.658;2024-01-16T08:38:32;98075.94;;;-9.88;68.71
42727;BME280;28372;56.832;60.658;2024-01-16T08:41:00;98084.34;;;-9.86;68.60
42727;BME280;28372;56.832;60.658;2024-01-16T08:43:33;98077.63;;;-9.82;67.84
42727;BME280;28372;56.832;60.658;2024-01-16T08:46:02;98064.06;;;-9.79;67.11
42727;BME280;28372;56.832;60.658;2024-01-16T08:48:30;98074.41;;;-9.72;67.83
42727;BME280;28372;56.832;60.658;2024-01-16T08:51:00;98074.09;;;-9.76;67.58
42727;BME280;28372;56.832;60.658;2024-01-16T08:53:29;98058.47;;;-9.71;68.59
42727;BME280;28372;56.832;60.658;2024-01-16T08:56:00;98073.91;;;-9.57;69.62
42727;BME280;28372;56.832;60.658;2024-01-16T08:58:28;98062.19;;;-9.67;69.92
42727;BME280;28372;56.832;60.658;2024-01-16T09:00:56;98073.19;;;-9.53;68.23
42727;BME280;28372;56.832;60.658;2024-01-16T09:03:26;98082.59;;;-9.40;68.29
42727;BME280;28372;56.832;60.658;2024-01-16T09:05:55;98077.56;;;-9.30;69.05
42727;BME280;28372;56.832;60.658;2024-01-16T09:08:23;98084.75;;;-9.37;66.12
42727;BME280;28372;56.832;60.658;2024-01-16T09:10:56;98071.56;;;-9.42;65.59
42727;BME280;28372;56.832;60.658;2024-01-16T09:13:25;98071.00;;;-9.44;66.41
42727;BME280;28372;56.832;60.658;2024-01-16T09:15:54;98069.34;;;-9.33;66.59
42727;BME280;28372;56.832;60.658;2024-01-16T09:18:23;98085.09;;;-9.16;64.87
42727;BME280;28372;56.832;60.658;2024-01-16T09:20:55;98083.47;;;-9.05;64.43
42727;BME280;28372;56.832;60.658;2024-01-16T09:23:25;98081.97;;;-9.01;65.63
42727;BME280;28372;56.832;60.658;2024-01-16T09:25:53;98077.44;;;-8.72;63.68
42727;BME280;28372;56.832;60.658;2024-01-16T09:28:21;98079.56;;;-9.20;64.06
42727;BME280;28372;56.832;60.658;2024-01-16T09:30:51;98065.63;;;-9.37;65.05
42727;BME280;28372;56.832;60.658;2024-01-16T09:33:19;98068.47;;;-9.39;63.82
42727;BME280;28372;56.832;60.658;2024-01-16T09:35:48;98067.72;;;-9.51;64.72
42727;BME280;28372;56.832;60.658;2024-01-16T09:38:16;98066.41;;;-9.66;65.71
42727;BME280;28372;56.832;60.658;2024-01-16T09:40:49;98081.56;;;-9.68;64.32
42727;BME280;28372;56.832;60.658;2024-01-16T09:43:22;98075.75;;;-9.58;65.29
42727;BME280;28372;56.832;60.658;2024-01-16T09:45:57;98058.69;;;-9.72;64.93
42727;BME280;28372;56.832;60.658;2024-01-16T09:48:31;98084.38;;;-9.57;65.93
42727;BME280;28372;56.832;60.658;2024-01-16T09:51:00;98095.97;;;-9.53;64.77
42727;BME280;28372;56.832;60.658;2024-01-16T09:53:29;98080.50;;;-9.55;66.67
42727;BME280;28372;56.832;60.658;2024-01-16T09:56:02;98094.63;;;-9.56;65.50
42727;BME280;28372;56.832;60.658;2024-01-16T09:58:34;98086.22;;;-9.70;64.94
42727;BME280;28372;56.832;60.658;2024-01-16T10:01:07;98080.88;;;-9.75;65.69
42727;BME280;28372;56.832;60.658;2024-01-16T10:03:35;98092.34;;;-9.64;65.05
42727;BME280;28372;56.832;60.658;2024-01-16T10:06:07;98093.34;;;-9.53;64.87
42727;BME280;28372;56.832;60.658;2024-01-16T10:08:36;98111.69;;;-9.53;64.31
42727;BME280;28372;56.832;60.658;2024-01-16T10:11:08;98110.22;;;-9.61;64.37
42727;BME280;28372;56.832;60.658;2024-01-16T10:13:36;98102.16;;;-9.71;64.91
42727;BME280;28372;56.832;60.658;2024-01-16T10:16:05;98088.84;;;-9.70;65.87
42727;BME280;28372;56.832;60.658;2024-01-16T10:18:33;98100.09;;;-9.57;65.06
42727;BME280;28372;56.832;60.658;2024-01-16T10:21:02;98095.88;;;-9.58;65.33
42727;BME280;28372;56.832;60.658;2024-01-16T10:23:31;98105.69;;;-9.66;66.31
42727;BME280;28372;56.832;60.658;2024-01-16T10:28:38;98103.63;;;-9.64;66.55
42727;BME280;28372;56.832;60.658;2024-01-16T10:31:09;98113.31;;;-9.64;66.15
42727;BME280;28372;56.832;60.658;2024-01-16T10:33:41;98111.56;;;-9.58;66.38
42727;BME280;28372;56.832;60.658;2024-01-16T10:36:12;98119.66;;;-9.60;66.08
42727;BME280;28372;56.832;60.658;2024-01-16T10:38:42;98109.00;;;-9.70;66.44
42727;BME280;28372;56.832;60.658;2024-01-16T10:41:14;98107.75;;;-9.68;67.14
42727;BME280;28372;56.832;60.658;2024-01-16T10:43:44;98105.56;;;-9.71;65.72
42727;BME280;28372;56.832;60.658;2024-01-16T10:46:14;98099.91;;;-9.79;67.04
42727;BME280;28372;56.832;60.658;2024-01-16T10:48:45;98060.38;;;-10.07;66.78
42727;BME280;28372;56.832;60.658;2024-01-16T10:51:15;98091.97;;;-9.96;65.91
42727;BME280;28372;56.832;60.658;2024-01-16T10:53:44;98099.25;;;-9.87;65.88
42727;BME280;28372;56.832;60.658;2024-01-16T10:56:17;98106.19;;;-9.92;65.74
42727;BME280;28372;56.832;60.658;2024-01-16T10:58:57;98106.88;;;-9.85;65.98
42727;BME280;28372;56.832;60.658;2024-01-16T11:01:28;98089.25;;;-9.90;67.13
42727;BME280;28372;56.832;60.658;2024-01-16T11:04:00;98089.25;;;-10.02;68.01
42727;BME280;28372;56.832;60.658;2024-01-16T11:09:18;98095.75;;;-10.04;70.29
42727;BME280;28372;56.832;60.658;2024-01-16T11:11:50;98100.19;;;-9.93;71.44
42727;BME280;28372;56.832;60.658;2024-01-16T11:14:23;98096.09;;;-10.01;71.23
42727;BME280;28372;56.832;60.658;2024-01-16T11:16:53;98098.69;;;-9.89;72.67
42727;BME280;28372;56.832;60.658;2024-01-16T11:19:25;98095.06;;;-10.00;72.42
42727;BME280;28372;56.832;60.658;2024-01-16T11:22:14;98107.66;;;-9.85;73.17
42727;BME280;28372;56.832;60.658;2024-01-16T11:24:44;98099.25;;;-9.87;73.58
42727;BME280;28372;56.832;60.658;2024-01-16T11:27:23;98101.50;;;-9.78;74.45
42727;BME280;28372;56.832;60.658;2024-01-16T11:29:53;98106.63;;;-9.72;74.72
42727;BME280;28372;56.832;60.658;2024-01-16T11:32:38;98109.78;;;-9.70;75.84
42727;BME280;28372;56.832;60.658;2024-01-16T11:35:10;98096.38;;;-9.73;76.04
42727;BME280;28372;56.832;60.658;2024-01-16T11:37:45;98109.09;;;-9.65;76.19
42727;BME280;28372;56.832;60.658;2024-01-16T11:42:52;98095.56;;;-9.62;76.66
42727;BME280;28372;56.832;60.658;2024-01-16T11:48:14;98106.81;;;-9.61;78.10
42727;BME280;28372;56.832;60.658;2024-01-16T11:50:44;98097.34;;;-9.51;78.68
42727;BME280;28372;56.832;60.658;2024-01-16T12:02:20;98091.94;;;-9.44;81.04
42727;BME280;28372;56.832;60.658;2024-01-16T12:04:53;98095.16;;;-9.54;81.41
42727;BME280;28372;56.832;60.658;2024-01-16T12:07:25;98103.53;;;-9.40;81.62
42727;BME280;28372;56.832;60.658;2024-01-16T12:09:59;98090.97;;;-9.55;82.30
42727;BME280;28372;56.832;60.658;2024-01-16T12:12:30;98086.53;;;-9.54;81.80
42727;BME280;28372;56.832;60.658;2024-01-16T12:14:59;98077.50;;;-9.47;82.92
42727;BME280;28372;56.832;60.658;2024-01-16T12:17:30;98093.94;;;-9.34;81.37
42727;BME280;28372;56.832;60.658;2024-01-16T12:19:59;98083.06;;;-9.43;81.25
42727;BME280;28372;56.832;60.658;2024-01-16T12:22:28;98090.38;;;-9.45;81.60
42727;BME280;28372;56.832;60.658;2024-01-16T12:24:59;98092.22;;;-9.57;80.50
42727;BME280;28372;56.832;60.658;2024-01-16T12:27:31;98094.28;;;-9.59;79.87
42727;BME280;28372;56.832;60.658;2024-01-16T12:30:07;98095.50;;;-9.50;78.67
42727;BME280;28372;56.832;60.658;2024-01-16T12:32:37;98082.34;;;-9.67;77.98
42727;BME280;28372;56.832;60.658;2024-01-16T12:35:05;98099.09;;;-9.68;78.14
42727;BME280;28372;56.832;60.658;2024-01-16T12:37:33;98098.06;;;-9.67;78.18
42727;BME280;28372;56.832;60.658;2024-01-16T12:40:02;98095.34;;;-9.72;77.26
42727;BME280;28372;56.832;60.658;2024-01-16T12:42:37;98088.06;;;-9.82;77.41
42727;BME280;28372;56.832;60.658;2024-01-16T12:45:08;98101.03;;;-9.75;76.61
42727;BME280;28372;56.832;60.658;2024-01-16T12:47:37;98101.16;;;-9.82;77.16
42727;BME280;28372;56.832;60.658;2024-01-16T12:50:06;98102.69;;;-9.98;76.29
42727;BME280;28372;56.832;60.658;2024-01-16T12:52:35;98097.00;;;-9.95;76.49
42727;BME280;28372;56.832;60.658;2024-01-16T12:55:03;98096.78;;;-10.05;76.53
42727;BME280;28372;56.832;60.658;2024-01-16T12:57:33;98094.84;;;-10.10;76.95
42727;BME280;28372;56.832;60.658;2024-01-16T13:00:21;98096.69;;;-10.22;76.68
42727;BME280;28372;56.832;60.658;2024-01-16T13:02:51;98100.56;;;-10.25;76.66
42727;BME280;28372;56.832;60.658;2024-01-16T13:05:21;98088.97;;;-10.29;76.16
42727;BME280;28372;56.832;60.658;2024-01-16T13:08:04;98098.19;;;-10.38;76.63
42727;BME280;28372;56.832;60.658;2024-01-16T13:10:33;98102.41;;;-10.37;76.69
42727;BME280;28372;56.832;60.658;2024-01-16T13:13:15;98091.38;;;-10.39;76.12
42727;BME280;28372;56.832;60.658;2024-01-16T13:15:49;98091.13;;;-10.49;76.37
42727;BME280;28372;56.832;60.658;2024-01-16T13:18:21;98082.06;;;-10.59;76.09